createdAt,value
2019-05-15T00:00:05.431Z,987.18
2019-05-15T00:01:05.581Z,987.27
2019-05-15T00:02:04.934Z,987.27
2019-05-15T00:03:05.560Z,987.24
2019-05-15T00:04:05.057Z,987.18
2019-05-15T00:05:05.337Z,987.21
2019-05-15T00:06:04.943Z,987.32
2019-05-15T00:07:05.010Z,987.15
2019-05-15T00:08:04.770Z,987.15
2019-05-15T00:09:04.505Z,987.15
2019-05-15T00:10:04.944Z,987.15
2019-05-15T00:11:04.863Z,987.24
2019-05-15T00:12:04.909Z,987.16
2019-05-15T00:13:05.531Z,987.07
2019-05-15T00:14:04.741Z,987.10
2019-05-15T00:15:04.912Z,987.18
2019-05-15T00:16:05.295Z,987.24
2019-05-15T00:17:05.001Z,987.16
2019-05-15T00:18:05.248Z,987.13
2019-05-15T00:19:05.430Z,987.10
2019-05-15T00:20:04.584Z,987.19
2019-05-15T00:21:04.679Z,987.10
2019-05-15T00:22:04.805Z,987.05
2019-05-15T00:23:05.231Z,987.16
2019-05-15T00:24:05.361Z,987.16
2019-05-15T00:25:05.485Z,987.13
2019-05-15T00:26:04.532Z,987.30
2019-05-15T00:27:05.438Z,987.08
2019-05-15T00:28:04.787Z,987.08
2019-05-15T00:29:17.148Z,987.19
2019-05-15T00:30:04.657Z,987.10
2019-05-15T00:31:04.632Z,987.05
2019-05-15T00:32:04.690Z,987.08
2019-05-15T00:33:04.920Z,987.13
2019-05-15T00:34:05.028Z,987.08
2019-05-15T00:35:05.431Z,987.10
2019-05-15T00:36:05.379Z,986.99
2019-05-15T00:37:04.675Z,986.91
2019-05-15T00:38:05.178Z,986.96
2019-05-15T00:39:05.342Z,987.02
2019-05-15T00:40:04.572Z,987.02
2019-05-15T00:41:05.365Z,986.91
2019-05-15T00:42:05.530Z,986.99
2019-05-15T00:43:05.227Z,986.96
2019-05-15T00:44:04.725Z,986.91
2019-05-15T00:45:04.521Z,986.97
2019-05-15T00:46:04.548Z,986.94
2019-05-15T00:47:04.668Z,987.02
2019-05-15T00:48:05.504Z,986.91
2019-05-15T00:49:05.575Z,986.97
2019-05-15T00:50:04.601Z,986.97
2019-05-15T00:51:04.756Z,986.89
2019-05-15T00:52:04.880Z,986.89
2019-05-15T00:53:08.944Z,986.91
2019-05-15T00:54:04.620Z,986.80
2019-05-15T00:55:04.714Z,986.80
2019-05-15T00:56:04.773Z,986.86
2019-05-15T00:57:04.985Z,986.89
2019-05-15T00:58:05.411Z,986.81
2019-05-15T00:59:04.765Z,986.92
2019-05-15T01:00:08.444Z,986.78
2019-05-15T01:01:05.090Z,986.86
2019-05-15T01:02:05.272Z,986.87
2019-05-15T01:03:04.559Z,986.84
2019-05-15T01:04:04.671Z,986.76
2019-05-15T01:05:05.054Z,987.01
2019-05-15T01:06:05.143Z,986.78
2019-05-15T01:07:04.978Z,986.78
2019-05-15T01:08:05.278Z,986.78
2019-05-15T01:09:04.940Z,986.76
2019-05-15T01:10:04.829Z,986.76
2019-05-15T01:11:05.042Z,986.76
2019-05-15T01:12:05.025Z,986.81
2019-05-15T01:13:05.282Z,986.73
2019-05-15T01:14:04.582Z,986.67
2019-05-15T01:15:04.889Z,986.73
2019-05-15T01:16:05.356Z,986.56
2019-05-15T01:17:05.333Z,986.59
2019-05-15T01:18:04.586Z,986.73
2019-05-15T01:19:05.131Z,986.76
2019-05-15T01:20:05.194Z,986.84
2019-05-15T01:21:04.575Z,986.62
2019-05-15T01:22:05.260Z,986.70
2019-05-15T01:23:05.473Z,986.64
2019-05-15T01:24:05.390Z,986.62
2019-05-15T01:25:04.937Z,986.62
2019-05-15T01:26:05.211Z,986.67
2019-05-15T01:27:05.094Z,986.62
2019-05-15T01:28:05.758Z,986.67
2019-05-15T01:29:05.301Z,986.70
2019-05-15T01:30:05.101Z,986.73
2019-05-15T01:31:05.009Z,986.73
2019-05-15T01:32:04.504Z,986.62
2019-05-15T01:33:05.329Z,986.70
2019-05-15T01:34:05.348Z,986.55
2019-05-15T01:35:04.555Z,986.59
2019-05-15T01:36:04.776Z,986.55
2019-05-15T01:37:05.307Z,986.57
2019-05-15T01:38:04.649Z,986.55
2019-05-15T01:39:05.154Z,986.55
2019-05-15T01:40:04.491Z,986.49
2019-05-15T01:41:04.592Z,986.57
2019-05-15T01:42:04.650Z,986.57
2019-05-15T01:43:05.309Z,986.50
2019-05-15T01:44:10.277Z,986.47
2019-05-15T01:45:04.742Z,986.47
2019-05-15T01:46:04.775Z,986.63
2019-05-15T01:47:05.032Z,986.50
2019-05-15T01:48:05.334Z,986.44
2019-05-15T01:49:04.954Z,986.39
2019-05-15T01:50:04.680Z,986.56
2019-05-15T01:51:05.206Z,986.53
2019-05-15T01:52:05.345Z,986.33
2019-05-15T01:53:04.668Z,986.39
2019-05-15T01:54:05.290Z,986.63
2019-05-15T01:55:04.546Z,986.53
2019-05-15T01:56:05.071Z,986.47
2019-05-15T01:57:05.701Z,986.33
2019-05-15T01:58:05.311Z,986.53
2019-05-15T01:59:05.292Z,986.50
2019-05-15T02:00:05.499Z,986.36
2019-05-15T02:01:04.602Z,986.47
2019-05-15T02:02:05.065Z,986.39
2019-05-15T02:03:05.175Z,986.36
2019-05-15T02:04:04.938Z,986.39
2019-05-15T02:05:05.223Z,986.33
2019-05-15T02:06:05.041Z,986.47
2019-05-15T02:07:10.293Z,986.33
2019-05-15T02:08:04.762Z,986.36
2019-05-15T02:09:05.083Z,986.30
2019-05-15T02:10:04.810Z,986.36
2019-05-15T02:11:05.318Z,986.36
2019-05-15T02:12:06.021Z,986.14
2019-05-15T02:13:04.439Z,986.42
2019-05-15T02:14:04.496Z,986.22
2019-05-15T02:15:05.222Z,986.17
2019-05-15T02:16:05.243Z,986.36
2019-05-15T02:17:04.954Z,986.25
2019-05-15T02:18:05.179Z,986.25
2019-05-15T02:19:05.205Z,986.22
2019-05-15T02:20:05.405Z,986.36
2019-05-15T02:21:10.199Z,986.19
2019-05-15T02:22:05.051Z,986.11
2019-05-15T02:23:05.317Z,986.11
2019-05-15T02:24:04.942Z,986.17
2019-05-15T02:25:04.522Z,986.25
2019-05-15T02:26:04.531Z,986.25
2019-05-15T02:27:04.887Z,986.20
2019-05-15T02:28:04.948Z,986.22
2019-05-15T02:29:07.627Z,986.17
2019-05-15T02:30:28.193Z,986.25
2019-05-15T02:31:04.734Z,986.14
2019-05-15T02:32:04.780Z,986.25
2019-05-15T02:33:05.227Z,986.20
2019-05-15T02:34:04.715Z,986.09
2019-05-15T02:35:05.187Z,986.11
2019-05-15T02:36:05.147Z,986.11
2019-05-15T02:37:04.515Z,986.11
2019-05-15T02:38:04.686Z,986.20
2019-05-15T02:39:04.747Z,986.20
2019-05-15T02:40:05.496Z,986.28
2019-05-15T02:41:04.506Z,986.12
2019-05-15T02:42:05.157Z,986.20
2019-05-15T02:43:05.353Z,986.09
2019-05-15T02:44:11.386Z,986.23
2019-05-15T02:45:04.756Z,986.28
2019-05-15T02:46:05.333Z,986.23
2019-05-15T02:47:05.176Z,986.12
2019-05-15T02:48:05.113Z,986.06
2019-05-15T02:49:08.495Z,986.09
2019-05-15T02:50:04.534Z,986.09
2019-05-15T02:51:05.092Z,986.09
2019-05-15T02:52:05.185Z,985.98
2019-05-15T02:53:04.795Z,986.20
2019-05-15T02:54:05.140Z,986.20
2019-05-15T02:55:05.347Z,986.09
2019-05-15T02:56:04.680Z,986.15
2019-05-15T02:57:04.837Z,986.31
2019-05-15T02:58:04.745Z,986.12
2019-05-15T02:59:04.746Z,986.12
2019-05-15T03:00:04.758Z,986.09
2019-05-15T03:01:04.966Z,986.09
2019-05-15T03:02:05.117Z,986.07
2019-05-15T03:03:05.211Z,986.09
2019-05-15T03:04:05.487Z,986.09
2019-05-15T03:05:05.315Z,986.12
2019-05-15T03:06:05.446Z,986.18
2019-05-15T03:07:05.106Z,986.15
2019-05-15T03:08:04.601Z,986.23
2019-05-15T03:09:04.699Z,986.07
2019-05-15T03:10:04.811Z,986.04
2019-05-15T03:11:04.977Z,986.23
2019-05-15T03:12:05.112Z,986.32
2019-05-15T03:13:05.460Z,986.04
2019-05-15T03:14:05.198Z,986.18
2019-05-15T03:15:11.557Z,986.15
2019-05-15T03:16:05.026Z,985.98
2019-05-15T03:17:05.530Z,986.18
2019-05-15T03:18:04.924Z,986.04
2019-05-15T03:19:04.878Z,985.98
2019-05-15T03:20:05.256Z,986.12
2019-05-15T03:21:04.984Z,986.18
2019-05-15T03:22:04.707Z,986.10
2019-05-15T03:23:04.767Z,986.15
2019-05-15T03:24:04.744Z,986.26
2019-05-15T03:25:05.306Z,986.15
2019-05-15T03:26:08.052Z,986.15
2019-05-15T03:27:04.959Z,986.12
2019-05-15T03:28:04.973Z,986.12
2019-05-15T03:29:05.277Z,986.15
2019-05-15T03:30:05.153Z,986.18
2019-05-15T03:31:48.622Z,986.18
2019-05-15T03:32:33.939Z,986.15
2019-05-15T03:33:20.039Z,986.12
2019-05-15T03:34:21.150Z,986.18
2019-05-15T03:35:06.377Z,986.09
2019-05-15T03:36:04.753Z,986.09
2019-05-15T03:37:04.741Z,986.12
2019-05-15T03:38:04.865Z,986.15
2019-05-15T03:39:04.725Z,986.07
2019-05-15T03:40:05.538Z,986.12
2019-05-15T03:41:04.897Z,986.23
2019-05-15T03:42:04.775Z,986.29
2019-05-15T03:43:09.452Z,986.18
2019-05-15T03:44:09.162Z,986.18
2019-05-15T03:45:04.641Z,986.12
2019-05-15T03:46:04.742Z,986.06
2019-05-15T03:47:05.126Z,986.17
2019-05-15T03:48:05.184Z,986.26
2019-05-15T03:49:04.445Z,986.20
2019-05-15T03:50:04.762Z,986.15
2019-05-15T03:51:05.142Z,986.15
2019-05-15T03:52:05.315Z,986.20
2019-05-15T03:53:04.994Z,986.20
2019-05-15T03:54:04.532Z,986.18
2019-05-15T03:55:11.322Z,986.20
2019-05-15T03:56:04.964Z,986.23
2019-05-15T03:57:04.933Z,986.09
2019-05-15T03:58:04.704Z,986.06
2019-05-15T03:59:05.183Z,986.15
2019-05-15T04:00:04.975Z,986.23
2019-05-15T04:01:15.222Z,986.20
2019-05-15T04:02:04.578Z,986.31
2019-05-15T04:03:04.845Z,986.15
2019-05-15T04:04:04.981Z,986.09
2019-05-15T04:05:05.288Z,986.26
2019-05-15T04:06:05.468Z,986.20
2019-05-15T04:07:05.011Z,986.12
2019-05-15T04:08:04.647Z,986.23
2019-05-15T04:09:04.954Z,986.29
2019-05-15T04:10:05.294Z,986.20
2019-05-15T04:11:05.035Z,986.26
2019-05-15T04:12:04.727Z,986.20
2019-05-15T04:13:04.899Z,986.26
2019-05-15T04:14:05.089Z,986.18
2019-05-15T04:15:05.538Z,986.23
2019-05-15T04:16:05.268Z,986.29
2019-05-15T04:17:04.966Z,986.29
2019-05-15T04:18:05.270Z,986.18
2019-05-15T04:19:04.600Z,986.29
2019-05-15T04:20:04.763Z,986.26
2019-05-15T04:21:05.106Z,986.15
2019-05-15T04:22:04.763Z,986.17
2019-05-15T04:23:05.250Z,986.20
2019-05-15T04:24:04.820Z,986.20
2019-05-15T04:25:10.436Z,986.20
2019-05-15T04:26:05.158Z,986.23
2019-05-15T04:27:10.827Z,986.20
2019-05-15T04:28:04.673Z,986.20
2019-05-15T04:29:05.441Z,986.20
2019-05-15T04:30:05.399Z,986.17
2019-05-15T04:31:04.727Z,986.17
2019-05-15T04:32:10.085Z,986.31
2019-05-15T04:33:05.085Z,986.31
2019-05-15T04:34:08.897Z,986.23
2019-05-15T04:35:05.069Z,986.25
2019-05-15T04:36:04.708Z,986.20
2019-05-15T04:37:04.991Z,986.25
2019-05-15T04:38:05.239Z,986.20
2019-05-15T04:39:04.578Z,986.39
2019-05-15T04:40:04.917Z,986.17
2019-05-15T04:41:05.269Z,986.20
2019-05-15T04:42:04.704Z,986.31
2019-05-15T04:43:04.961Z,986.25
2019-05-15T04:44:05.014Z,986.31
2019-05-15T04:45:05.141Z,986.22
2019-05-15T04:46:05.016Z,986.36
2019-05-15T04:47:05.081Z,986.36
2019-05-15T04:48:05.384Z,986.36
2019-05-15T04:49:09.017Z,986.28
2019-05-15T04:50:08.559Z,986.14
2019-05-15T04:51:04.538Z,986.31
2019-05-15T04:52:04.757Z,986.25
2019-05-15T04:53:05.099Z,986.39
2019-05-15T04:54:04.953Z,986.28
2019-05-15T04:55:05.146Z,986.30
2019-05-15T04:56:04.850Z,986.33
2019-05-15T04:57:05.277Z,986.19
2019-05-15T04:58:05.243Z,986.33
2019-05-15T04:59:04.572Z,986.36
2019-05-15T05:00:04.928Z,986.33
2019-05-15T05:01:08.924Z,986.33
2019-05-15T05:02:26.959Z,986.30
2019-05-15T05:03:04.925Z,986.38
2019-05-15T05:04:04.837Z,986.32
2019-05-15T05:05:05.425Z,986.35
2019-05-15T05:06:04.616Z,986.18
2019-05-15T05:07:05.160Z,986.27
2019-05-15T05:08:05.393Z,986.35
2019-05-15T05:09:05.537Z,986.35
2019-05-15T05:10:04.802Z,986.43
2019-05-15T05:11:05.153Z,986.23
2019-05-15T05:12:05.276Z,986.15
2019-05-15T05:13:05.218Z,986.34
2019-05-15T05:14:04.882Z,986.29
2019-05-15T05:15:08.242Z,986.20
2019-05-15T05:16:04.538Z,986.37
2019-05-15T05:17:05.033Z,986.37
2019-05-15T05:18:05.270Z,986.28
2019-05-15T05:19:04.533Z,986.39
2019-05-15T05:20:05.060Z,986.34
2019-05-15T05:21:05.176Z,986.37
2019-05-15T05:22:04.807Z,986.25
2019-05-15T05:23:04.714Z,986.42
2019-05-15T05:24:05.011Z,986.31
2019-05-15T05:25:04.497Z,986.33
2019-05-15T05:26:07.821Z,986.39
2019-05-15T05:27:04.749Z,986.42
2019-05-15T05:28:04.745Z,986.39
2019-05-15T05:29:04.677Z,986.42
2019-05-15T05:30:05.533Z,986.33
2019-05-15T05:31:04.583Z,986.19
2019-05-15T05:32:05.473Z,986.44
2019-05-15T05:33:04.739Z,986.36
2019-05-15T05:34:04.961Z,986.24
2019-05-15T05:35:05.394Z,986.16
2019-05-15T05:36:04.744Z,986.30
2019-05-15T05:37:05.054Z,986.21
2019-05-15T05:38:04.765Z,986.24
2019-05-15T05:39:05.278Z,986.32
2019-05-15T05:40:04.529Z,986.32
2019-05-15T05:41:04.920Z,986.29
2019-05-15T05:42:04.930Z,986.20
2019-05-15T05:43:05.104Z,986.31
2019-05-15T05:44:04.512Z,986.26
2019-05-15T05:45:04.995Z,986.31
2019-05-15T05:46:05.428Z,986.28
2019-05-15T05:47:04.966Z,986.23
2019-05-15T05:48:05.040Z,986.11
2019-05-15T05:49:10.260Z,986.28
2019-05-15T05:50:04.643Z,986.19
2019-05-15T05:51:04.955Z,986.11
2019-05-15T05:52:05.453Z,986.19
2019-05-15T05:53:09.233Z,986.33
2019-05-15T05:54:08.825Z,986.10
2019-05-15T05:55:05.302Z,986.19
2019-05-15T05:56:05.237Z,986.30
2019-05-15T05:57:04.958Z,986.46
2019-05-15T05:58:05.001Z,986.24
2019-05-15T05:59:05.654Z,986.18
2019-05-15T06:00:04.730Z,986.23
2019-05-15T06:01:05.612Z,986.31
2019-05-15T06:02:04.718Z,986.34
2019-05-15T06:03:04.723Z,986.31
2019-05-15T06:04:04.957Z,986.28
2019-05-15T06:05:04.770Z,986.14
2019-05-15T06:06:04.885Z,986.25
2019-05-15T06:07:14.175Z,986.36
2019-05-15T06:08:05.080Z,986.30
2019-05-15T06:09:04.811Z,986.28
2019-05-15T06:10:05.155Z,986.27
2019-05-15T06:11:05.276Z,986.44
2019-05-15T06:12:04.754Z,986.33
2019-05-15T06:13:04.985Z,986.33
2019-05-15T06:14:04.626Z,986.36
2019-05-15T06:15:04.826Z,986.33
2019-05-15T06:16:04.730Z,986.33
2019-05-15T06:17:04.972Z,986.38
2019-05-15T06:18:05.095Z,986.29
2019-05-15T06:19:08.103Z,986.27
2019-05-15T06:20:05.400Z,986.35
2019-05-15T06:21:04.939Z,986.37
2019-05-15T06:22:04.962Z,986.32
2019-05-15T06:23:05.403Z,986.34
2019-05-15T06:24:12.915Z,986.26
2019-05-15T06:25:05.666Z,986.37
2019-05-15T06:26:04.558Z,986.45
2019-05-15T06:27:04.799Z,986.48
2019-05-15T06:28:04.965Z,986.34
2019-05-15T06:29:05.009Z,986.45
2019-05-15T06:30:05.170Z,986.42
2019-05-15T06:31:05.131Z,986.51
2019-05-15T06:32:04.564Z,986.34
2019-05-15T06:33:13.470Z,986.50
2019-05-15T06:34:05.246Z,986.45
2019-05-15T06:35:04.848Z,986.47
2019-05-15T06:36:04.775Z,986.44
2019-05-15T06:37:05.098Z,986.66
2019-05-15T06:38:05.289Z,986.56
2019-05-15T06:39:04.498Z,986.50
2019-05-15T06:40:05.499Z,986.50
2019-05-15T06:41:05.441Z,986.68
2019-05-15T06:42:04.677Z,986.50
2019-05-15T06:43:04.875Z,986.55
2019-05-15T06:44:04.955Z,986.44
2019-05-15T06:45:04.957Z,986.53
2019-05-15T06:46:04.864Z,986.53
2019-05-15T06:47:05.208Z,986.44
2019-05-15T06:48:05.007Z,986.44
2019-05-15T06:49:05.531Z,986.38
2019-05-15T06:50:05.538Z,986.55
2019-05-15T06:51:04.560Z,986.55
2019-05-15T06:52:04.782Z,986.55
2019-05-15T06:53:10.739Z,986.52
2019-05-15T06:54:04.652Z,986.62
2019-05-15T06:55:04.663Z,986.38
2019-05-15T06:56:04.931Z,986.35
2019-05-15T06:57:10.408Z,986.35
2019-05-15T06:58:04.783Z,986.52
2019-05-15T06:59:05.025Z,986.41
2019-05-15T07:00:05.179Z,986.41
2019-05-15T07:01:04.677Z,986.49
2019-05-15T07:02:04.708Z,986.38
2019-05-15T07:03:25.091Z,986.35
2019-05-15T07:04:05.169Z,986.46
2019-05-15T07:05:07.655Z,986.46
2019-05-15T07:06:04.913Z,986.43
2019-05-15T07:07:10.975Z,986.59
2019-05-15T07:08:06.080Z,986.65
2019-05-15T07:09:04.982Z,986.46
2019-05-15T07:10:05.182Z,986.46
2019-05-15T07:11:05.209Z,986.46
2019-05-15T07:12:05.424Z,986.38
2019-05-15T07:13:04.979Z,986.43
2019-05-15T07:14:05.452Z,986.49
2019-05-15T07:15:05.423Z,986.62
2019-05-15T07:16:04.592Z,986.52
2019-05-15T07:17:05.018Z,986.56
2019-05-15T07:18:05.104Z,986.40
2019-05-15T07:19:04.648Z,986.52
2019-05-15T07:20:04.767Z,986.46
2019-05-15T07:21:04.994Z,986.49
2019-05-15T07:22:05.908Z,986.70
2019-05-15T07:23:04.982Z,986.43
2019-05-15T07:24:05.147Z,986.43
2019-05-15T07:25:05.166Z,986.54
2019-05-15T07:26:05.315Z,986.37
2019-05-15T07:27:08.367Z,986.51
2019-05-15T07:28:05.053Z,986.54
2019-05-15T07:29:05.087Z,986.61
2019-05-15T07:30:09.925Z,986.58
2019-05-15T07:31:05.040Z,986.48
2019-05-15T07:32:07.911Z,986.45
2019-05-15T07:33:09.171Z,986.48
2019-05-15T07:34:04.848Z,986.42
2019-05-15T07:35:04.935Z,986.39
2019-05-15T07:36:05.185Z,986.42
2019-05-15T07:37:04.500Z,986.42
2019-05-15T07:38:04.723Z,986.50
2019-05-15T07:39:04.803Z,986.42
2019-05-15T07:40:04.835Z,986.56
2019-05-15T07:41:05.426Z,986.42
2019-05-15T07:42:05.463Z,986.45
2019-05-15T07:43:05.229Z,986.44
2019-05-15T07:44:09.632Z,986.25
2019-05-15T07:45:05.047Z,986.39
2019-05-15T07:46:04.758Z,986.44
2019-05-15T07:47:04.927Z,986.38
2019-05-15T07:48:05.405Z,986.38
2019-05-15T07:49:04.543Z,986.32
2019-05-15T07:50:04.792Z,986.41
2019-05-15T07:51:04.968Z,986.41
2019-05-15T07:52:04.855Z,986.38
2019-05-15T07:53:04.832Z,986.35
2019-05-15T07:54:05.014Z,986.35
2019-05-15T07:55:05.148Z,986.40
2019-05-15T07:56:05.255Z,986.37
2019-05-15T07:57:04.500Z,986.46
2019-05-15T07:58:04.527Z,986.37
2019-05-15T07:59:04.833Z,986.34
2019-05-15T08:00:05.085Z,986.34
2019-05-15T08:01:05.852Z,986.26
2019-05-15T08:02:04.498Z,986.31
2019-05-15T08:03:05.350Z,986.40
2019-05-15T08:04:29.319Z,986.37
2019-05-15T08:05:05.054Z,986.20
2019-05-15T08:06:05.330Z,986.39
2019-05-15T08:07:05.039Z,986.25
2019-05-15T08:08:04.976Z,986.45
2019-05-15T08:09:04.822Z,986.39
2019-05-15T08:10:04.829Z,986.22
2019-05-15T08:11:21.566Z,986.28
2019-05-15T08:12:04.778Z,986.28
2019-05-15T08:13:05.108Z,986.25
2019-05-15T08:14:05.182Z,986.30
2019-05-15T08:15:05.335Z,986.33
2019-05-15T08:16:04.772Z,986.47
2019-05-15T08:17:05.082Z,986.24
2019-05-15T08:18:12.771Z,986.30
2019-05-15T08:19:04.737Z,986.33
2019-05-15T08:20:05.122Z,986.44
2019-05-15T08:21:05.035Z,986.38
2019-05-15T08:22:05.159Z,986.44
2019-05-15T08:23:05.377Z,986.27
2019-05-15T08:24:05.036Z,986.27
2019-05-15T08:25:11.593Z,986.33
2019-05-15T08:26:04.937Z,986.24
2019-05-15T08:27:05.050Z,986.24
2019-05-15T08:28:05.236Z,986.35
2019-05-15T08:29:05.320Z,986.38
2019-05-15T08:30:05.480Z,986.52
2019-05-15T08:31:10.026Z,986.32
2019-05-15T08:32:05.023Z,986.10
2019-05-15T08:33:05.080Z,986.21
2019-05-15T08:34:16.501Z,986.38
2019-05-15T08:35:05.421Z,986.23
2019-05-15T08:36:07.754Z,986.32
2019-05-15T08:37:04.738Z,986.38
2019-05-15T08:38:04.776Z,986.35
2019-05-15T08:39:05.296Z,986.29
2019-05-15T08:40:04.972Z,986.15
2019-05-15T08:41:05.464Z,986.17
2019-05-15T08:42:07.815Z,986.17
2019-05-15T08:43:04.988Z,986.23
2019-05-15T08:44:10.055Z,986.26
2019-05-15T08:45:05.373Z,986.09
2019-05-15T08:46:04.589Z,986.37
2019-05-15T08:47:05.225Z,986.28
2019-05-15T08:48:05.166Z,986.31
2019-05-15T08:49:05.278Z,986.29
2019-05-15T08:50:04.621Z,986.29
2019-05-15T08:51:04.643Z,986.32
2019-05-15T08:52:10.067Z,986.32
2019-05-15T08:53:05.099Z,986.20
2019-05-15T08:54:05.453Z,986.32
2019-05-15T08:55:05.014Z,986.29
2019-05-15T08:56:04.483Z,986.21
2019-05-15T08:57:05.305Z,986.26
2019-05-15T08:58:13.958Z,986.15
2019-05-15T08:59:04.899Z,986.35
2019-05-15T09:00:05.133Z,986.29
2019-05-15T09:01:05.402Z,986.38
2019-05-15T09:02:04.745Z,986.24
2019-05-15T09:03:04.711Z,986.29
2019-05-15T09:04:04.885Z,986.29
2019-05-15T09:05:05.290Z,986.12
2019-05-15T09:06:04.471Z,986.24
2019-05-15T09:07:05.111Z,986.32
2019-05-15T09:08:05.113Z,986.21
2019-05-15T09:09:05.172Z,986.18
2019-05-15T09:10:04.460Z,986.23
2019-05-15T09:11:05.093Z,986.12
2019-05-15T09:12:08.084Z,986.20
2019-05-15T09:13:05.262Z,986.09
2019-05-15T09:14:08.000Z,986.17
2019-05-15T09:15:07.657Z,986.23
2019-05-15T09:16:05.068Z,986.28
2019-05-15T09:17:05.034Z,986.14
2019-05-15T09:18:16.336Z,986.17
2019-05-15T09:19:05.179Z,986.11
2019-05-15T09:20:04.847Z,986.11
2019-05-15T09:21:04.621Z,986.08
2019-05-15T09:22:04.701Z,986.05
2019-05-15T09:23:05.030Z,986.25
2019-05-15T09:24:05.240Z,986.02
2019-05-15T09:25:04.580Z,985.99
2019-05-15T09:26:04.560Z,986.13
2019-05-15T09:27:05.304Z,986.10
2019-05-15T09:28:05.190Z,986.13
2019-05-15T09:29:05.527Z,986.19
2019-05-15T09:30:05.438Z,986.07
2019-05-15T09:31:04.973Z,986.10
2019-05-15T09:32:05.374Z,986.10
2019-05-15T09:33:05.089Z,986.24
2019-05-15T09:34:04.634Z,986.07
2019-05-15T09:35:04.986Z,986.07
2019-05-15T09:36:05.346Z,986.04
2019-05-15T09:37:05.067Z,986.04
2019-05-15T09:38:04.594Z,986.13
2019-05-15T09:39:04.731Z,985.93
2019-05-15T09:40:04.805Z,986.13
2019-05-15T09:41:04.930Z,985.96
2019-05-15T09:42:04.970Z,986.04
2019-05-15T09:43:05.190Z,986.16
2019-05-15T09:44:10.264Z,985.99
2019-05-15T09:45:04.789Z,986.07
2019-05-15T09:46:10.273Z,986.10
2019-05-15T09:47:04.698Z,986.02
2019-05-15T09:48:05.115Z,986.02
2019-05-15T09:49:05.312Z,986.16
2019-05-15T09:50:04.773Z,986.02
2019-05-15T09:51:04.889Z,986.02
2019-05-15T09:52:04.991Z,985.90
2019-05-15T09:53:04.999Z,985.99
2019-05-15T09:54:05.238Z,985.93
2019-05-15T09:55:05.027Z,985.93
2019-05-15T09:56:04.453Z,985.99
2019-05-15T09:57:05.056Z,985.93
2019-05-15T09:58:05.075Z,985.90
2019-05-15T09:59:04.849Z,985.90
2019-05-15T10:00:05.034Z,985.90
2019-05-15T10:01:05.225Z,985.87
2019-05-15T10:02:04.475Z,985.85
2019-05-15T10:03:05.291Z,985.99
2019-05-15T10:04:05.294Z,985.85
2019-05-15T10:05:11.537Z,985.90
2019-05-15T10:06:05.169Z,985.85
2019-05-15T10:07:05.039Z,985.85
2019-05-15T10:08:04.693Z,985.93
2019-05-15T10:09:05.064Z,985.85
2019-05-15T10:10:05.212Z,985.82
2019-05-15T10:11:05.409Z,985.85
2019-05-15T10:12:05.025Z,985.90
2019-05-15T10:13:05.088Z,985.76
2019-05-15T10:14:04.939Z,985.71
2019-05-15T10:15:05.121Z,985.90
2019-05-15T10:16:04.447Z,985.85
2019-05-15T10:17:04.834Z,985.76
2019-05-15T10:18:05.225Z,985.73
2019-05-15T10:19:04.510Z,985.73
2019-05-15T10:20:04.674Z,985.82
2019-05-15T10:21:05.135Z,985.70
2019-05-15T10:22:10.262Z,985.73
2019-05-15T10:23:04.759Z,985.79
2019-05-15T10:24:04.982Z,985.87
2019-05-15T10:25:08.625Z,985.90
2019-05-15T10:26:14.423Z,985.79
2019-05-15T10:27:09.186Z,985.79
2019-05-15T10:28:04.709Z,985.76
2019-05-15T10:29:05.237Z,985.76
2019-05-15T10:30:05.299Z,985.71
2019-05-15T10:31:05.513Z,985.88
2019-05-15T10:32:05.324Z,985.76
2019-05-15T10:33:05.420Z,985.73
2019-05-15T10:34:05.299Z,985.73
2019-05-15T10:35:04.682Z,985.73
2019-05-15T10:36:04.719Z,985.76
2019-05-15T10:37:05.415Z,985.76
2019-05-15T10:38:04.911Z,985.79
2019-05-15T10:39:07.566Z,985.70
2019-05-15T10:40:05.471Z,985.64
2019-05-15T10:41:15.083Z,985.64
2019-05-15T10:42:04.990Z,985.64
2019-05-15T10:43:05.060Z,985.64
2019-05-15T10:44:05.157Z,985.67
2019-05-15T10:45:05.279Z,985.59
2019-05-15T10:46:13.768Z,985.64
2019-05-15T10:47:05.864Z,985.73
2019-05-15T10:48:04.662Z,985.67
2019-05-15T10:49:05.347Z,985.61
2019-05-15T10:50:04.666Z,985.67
2019-05-15T10:51:10.128Z,985.64
2019-05-15T10:52:05.074Z,985.58
2019-05-15T10:53:05.105Z,985.53
2019-05-15T10:54:05.353Z,985.75
2019-05-15T10:55:05.071Z,985.64
2019-05-15T10:56:05.377Z,985.64
2019-05-15T10:57:08.491Z,985.58
2019-05-15T10:58:05.394Z,985.60
2019-05-15T10:59:05.070Z,985.63
2019-05-15T11:00:05.242Z,985.63
2019-05-15T11:01:04.931Z,985.46
2019-05-15T11:02:05.209Z,985.54
2019-05-15T11:03:04.471Z,985.27
2019-05-15T11:04:04.832Z,985.52
2019-05-15T11:05:05.270Z,985.35
2019-05-15T11:06:05.273Z,985.37
2019-05-15T11:07:05.450Z,985.49
2019-05-15T11:08:04.726Z,985.27
2019-05-15T11:09:07.821Z,985.49
2019-05-15T11:10:04.597Z,985.49
2019-05-15T11:11:04.735Z,985.35
2019-05-15T11:12:04.841Z,985.37
2019-05-15T11:13:04.917Z,985.43
2019-05-15T11:14:05.041Z,985.35
2019-05-15T11:15:04.770Z,985.37
2019-05-15T11:16:05.324Z,985.52
2019-05-15T11:17:04.817Z,985.40
2019-05-15T11:18:04.937Z,985.52
2019-05-15T11:19:07.870Z,985.40
2019-05-15T11:20:04.910Z,985.30
2019-05-15T11:21:05.346Z,985.46
2019-05-15T11:22:05.274Z,985.34
2019-05-15T11:23:07.954Z,985.43
2019-05-15T11:24:05.004Z,985.51
2019-05-15T11:25:04.665Z,985.46
2019-05-15T11:26:05.049Z,985.43
2019-05-15T11:27:04.769Z,985.30
2019-05-15T11:28:04.810Z,985.24
2019-05-15T11:29:09.892Z,985.43
2019-05-15T11:30:07.444Z,985.43
2019-05-15T11:31:05.005Z,985.46
2019-05-15T11:32:05.155Z,985.37
2019-05-15T11:33:05.356Z,985.40
2019-05-15T11:34:05.556Z,985.46
2019-05-15T11:35:05.113Z,985.40
2019-05-15T11:36:06.639Z,985.49
2019-05-15T11:37:05.312Z,985.34
2019-05-15T11:38:05.131Z,985.49
2019-05-15T11:39:05.088Z,985.40
2019-05-15T11:40:05.378Z,985.24
2019-05-15T11:41:05.173Z,985.24
2019-05-15T11:42:05.123Z,985.43
2019-05-15T11:43:04.764Z,985.30
2019-05-15T11:44:04.577Z,985.37
2019-05-15T11:45:04.978Z,985.40
2019-05-15T11:46:05.838Z,985.34
2019-05-15T11:47:05.040Z,985.40
2019-05-15T11:48:04.479Z,985.30
2019-05-15T11:49:04.578Z,985.27
2019-05-15T11:50:04.704Z,985.37
2019-05-15T11:51:04.898Z,985.40
2019-05-15T11:52:04.691Z,985.27
2019-05-15T11:53:04.813Z,985.30
2019-05-15T11:54:04.784Z,985.37
2019-05-15T11:55:04.987Z,985.34
2019-05-15T11:56:05.514Z,985.43
2019-05-15T11:57:04.581Z,985.24
2019-05-15T11:58:04.547Z,985.29
2019-05-15T11:59:05.272Z,985.24
2019-05-15T12:00:05.784Z,985.34
2019-05-15T12:01:04.653Z,985.21
2019-05-15T12:02:04.627Z,985.21
2019-05-15T12:03:04.752Z,985.09
2019-05-15T12:04:10.032Z,985.23
2019-05-15T12:05:05.463Z,985.15
2019-05-15T12:06:22.530Z,985.20
2019-05-15T12:07:05.427Z,985.00
2019-05-15T12:08:05.148Z,985.20
2019-05-15T12:09:05.181Z,985.14
2019-05-15T12:10:05.233Z,985.17
2019-05-15T12:11:04.815Z,985.08
2019-05-15T12:12:05.305Z,985.20
2019-05-15T12:13:04.626Z,985.11
2019-05-15T12:14:04.731Z,985.17
2019-05-15T12:15:04.760Z,985.17
2019-05-15T12:16:07.063Z,985.00
2019-05-15T12:17:15.660Z,985.22
2019-05-15T12:18:05.249Z,985.14
2019-05-15T12:19:17.224Z,985.17
2019-05-15T12:20:10.294Z,985.22
2019-05-15T12:21:04.687Z,985.22
2019-05-15T12:22:05.294Z,985.08
2019-05-15T12:23:04.863Z,985.05
2019-05-15T12:24:05.426Z,985.22
2019-05-15T12:25:04.872Z,985.05
2019-05-15T12:26:09.479Z,985.05
2019-05-15T12:27:18.463Z,984.91
2019-05-15T12:28:05.011Z,985.00